Latest Weather Observations for Double Island Point

IDQ60801

Issued at 6:02 am EST Saturday 20 December 2014 (issued every 30 minutes, with the page automatically refreshed every 10 minutes)

About weather observations | Map of weather stations | Latest weather observations for QLD | Other Formats
Station Details ID: 040068 Name: DOUBLE ISLAND POINT LIGHTHOUSE Lat: -25.93 Lon: 153.19 Height: 95.64 m
Data from the previous 72 hours. | See also: Recent months at Double Island Point
Date/Time
EST
Temp
°C
App
Temp
°C
Dew
Point
Rel
Hum
%
Delta-T
°C
Wind Press
QNH
hPa
Press
MSL
hPa
Rain
since 9 am
mm
Dir
 
Spd
km/h
Gust
km/h
Spd
kts
Gust
kts
20/06:00am 25.0 21.3 19.1 70 3.8 SE 37 41 20 22 1013.6 1013.1 0.4
20/05:30am 24.5 20.2 19.6 74 3.2 SE 41 46 22 25 1013.1 1012.7 0.4
20/05:00am 24.1 20.2 19.6 76 2.9 SE 39 44 21 24 1012.7 1012.2 0.4
20/04:30am 24.1 20.9 18.5 71 3.6 SE 33 39 18 21 1012.5 1012.0 0.4
20/04:00am 24.1 20.0 18.3 70 3.7 SE 37 41 20 22 1012.2 1011.7 0.4
20/03:30am 24.1 20.8 19.2 74 3.1 SE 35 41 19 22 1012.2 1011.7 0.4
20/03:00am 24.0 20.4 18.6 72 3.4 SSE 35 39 19 21 1012.1 1011.6 0.4
20/02:30am 23.9 23.0 21.4 86 1.7 SSE 28 35 15 19 1012.0 1011.5 0.4
20/02:00am 23.7 22.2 21.8 89 1.3 SSE 32 37 17 20 1012.1 1011.6 0.4
20/01:30am 23.3 22.8 21.4 89 1.3 S 26 32 14 17 1012.2 1011.7 0.4
20/01:00am 23.0 23.4 20.9 88 1.4 SSE 20 24 11 13 1012.2 1011.7 0.4
20/12:30am 23.0 23.5 20.1 84 1.9 SSE 17 20 9 11 1012.3 1011.8 0.4
20/12:00am 23.4 25.3 19.8 80 2.3 SW 9 13 5 7 1012.4 1011.9 0.4
 
Date/Time
EST
Temp
°C
App
Temp
°C
Dew
Point
Rel
Hum
%
Delta-T
°C
Wind Press
QNH
hPa
Press
MSL
hPa
Rain
since 9 am
mm
Dir
 
Spd
km/h
Gust
km/h
Spd
kts
Gust
kts
19/11:30pm 23.7 24.0 20.4 82 2.2 WNW 19 20 10 11 1012.5 1012.0 0.4
19/11:00pm 23.6 23.6 20.9 85 1.8 WNW 22 24 12 13 1012.5 1012.0 0.4
19/10:30pm 23.6 23.7 21.1 86 1.6 WNW 22 24 12 13 1012.4 1011.9 0.4
19/10:00pm 23.9 24.5 21.4 86 1.7 NNW 20 26 11 14 1012.5 1012.0 0.4
19/09:30pm 23.8 25.1 20.9 84 1.9 NNW 15 24 8 13 1012.5 1012.0 0.4
19/09:00pm 23.8 26.1 20.7 83 2.0 N 9 50 5 27 1012.2 1011.7 0.4
19/08:30pm 23.9 26.4 21.0 84 1.9 N 9 19 5 10 1012.0 1011.5 0.4
19/08:00pm 23.9 26.3 20.8 83 2.0 N 9 13 5 7 1011.9 1011.4 0.4
19/07:30pm 24.1 26.4 20.6 81 2.3 N 9 11 5 6 1011.9 1011.4 0.4
19/07:00pm 24.4 26.9 20.3 78 2.7 N 7 9 4 5 1011.4 1010.9 0.4
19/06:30pm 25.2 27.2 20.0 73 3.4 N 9 15 5 8 1011.1 1010.6 0.4
19/06:00pm 26.4 28.7 20.7 71 3.8 N 9 17 5 9 1010.8 1010.3 0.4
19/05:30pm 27.0 29.8 20.8 69 4.1 NNW 7 17 4 9 1010.4 1009.9 0.4
19/05:00pm 27.2 28.6 20.3 66 4.5 N 13 19 7 10 1010.2 1009.7 0.4
19/04:30pm 27.3 28.0 20.4 66 4.5 N 17 24 9 13 1010.1 1009.6 0.4
19/04:00pm 28.0 29.8 21.1 66 4.6 N 13 19 7 10 1009.9 1009.4 0.4
19/03:30pm 28.1 29.3 21.4 67 4.5 NNE 17 20 9 11 1009.9 1009.4 0.4
19/03:00pm 28.9 31.3 22.2 67 4.5 NNE 13 17 7 9 1010.0 1009.5 0.4
19/02:30pm 29.2 32.2 21.2 62 5.4 N 7 11 4 6 1010.3 1009.8 0.4
19/02:00pm 28.6 31.4 21.6 66 4.7 NNW 9 15 5 8 1010.7 1010.2 0.4
19/01:30pm 28.3 30.7 21.6 67 4.5 NNW 11 17 6 9 1011.0 1010.5 0.4
19/01:00pm 27.7 30.4 22.2 72 3.7 NNW 11 15 6 8 1011.3 1010.8 0.4
19/12:00pm 25.6 27.4 21.9 80 2.5 NW 15 22 8 12 1011.8 1011.3 0.4
19/11:30am 24.3 25.2 20.0 77 2.8 NW 15 20 8 11 1012.1 1011.6 0.4
19/11:00am 23.3 24.6 20.2 83 2.0 NW 13 17 7 9 1012.4 1011.9 0.2
19/10:30am 22.3 24.2 19.8 86 1.6 WNW 9 13 5 7 1012.6 1012.1 0.2
19/10:00am 21.5 23.6 19.4 88 1.3 SW 7 13 4 7 1012.9 1012.5 0.2
19/09:30am 21.3 23.4 19.4 89 1.2 NW 7 11 4 6 1012.8 1012.3 0.2
19/09:00am 20.8 22.7 18.9 89 1.2 WSW 7 9 4 5 1012.9 1012.5 12.0
19/08:30am 20.9 23.0 19.0 89 1.2 SW 6 7 3 4 1012.6 1012.1 11.8
19/08:00am 20.6 23.3 18.7 89 1.2 SW 2 7 1 4 1012.8 1012.3 11.6
19/07:30am 20.4 21.4 18.7 90 1.1 SW 11 13 6 7 1012.9 1012.5 11.2
19/07:00am 20.4 22.2 18.7 90 1.1 SW 7 9 4 5 1012.7 1012.2 11.0
19/06:30am 20.2 21.1 18.5 90 1.1 WSW 11 13 6 7 1012.8 1012.3 10.8
19/06:00am 20.1 21.4 18.4 90 1.1 SW 9 11 5 6 1012.6 1012.1 10.6
19/05:30am 20.2 20.8 18.5 90 1.1 SSW 13 17 7 9 1012.4 1011.9 10.4
19/05:00am 20.1 19.5 18.4 90 1.1 S 19 20 10 11 1011.9 1011.4 10.2
19/04:30am 20.1 18.9 18.4 90 1.1 S 22 32 12 17 1012.1 1011.6 9.6
19/04:00am 20.2 17.5 18.5 90 1.1 S 30 37 16 20 1011.6 1011.1 9.2
19/03:30am 20.5 18.3 18.8 90 1.1 S 28 35 15 19 1011.7 1011.2 9.0
19/03:00am 21.1 20.7 19.4 90 1.1 SSW 20 26 11 14 1011.8 1011.3 8.4
19/02:30am 21.3 20.9 19.4 89 1.2 S 20 30 11 16 1011.7 1011.2 6.6
19/02:00am 21.7 21.6 19.6 88 1.3 S 19 26 10 14 1011.6 1011.1 5.6
19/01:30am 22.2 21.2 19.6 85 1.7 SSW 24 35 13 19 1012.1 1011.6 4.8
19/01:00am 22.4 23.4 20.3 88 1.4 SW 15 24 8 13 1012.0 1011.5 4.8
19/12:30am 22.7 24.2 21.2 91 1.0 S 15 20 8 11 1012.1 1011.6 4.6
19/12:00am 22.8 23.4 21.3 91 1.0 SSE 20 28 11 15 1012.0 1011.5 4.2
 
Date/Time
EST
Temp
°C
App
Temp
°C
Dew
Point
Rel
Hum
%
Delta-T
°C
Wind Press
QNH
hPa
Press
MSL
hPa
Rain
since 9 am
mm
Dir
 
Spd
km/h
Gust
km/h
Spd
kts
Gust
kts
18/11:30pm 22.9 23.1 21.4 91 1.0 S 22 26 12 14 1012.1 1011.6 4.0
18/11:00pm 22.7 23.2 20.8 89 1.2 WSW 19 24 10 13 1013.1 1012.7 3.0
18/10:30pm 23.5 24.1 21.0 86 1.6 SSW 19 22 10 12 1013.0 1012.6 0.0
18/10:00pm 23.7 24.3 21.0 85 1.8 SSE 19 24 10 13 1012.4 1011.9 0.0
18/09:30pm 24.8 24.6 19.8 74 3.2 WSW 20 37 11 20 1012.3 1011.8 0.0
18/09:00pm 25.8 25.0 19.2 67 4.3 WNW 22 28 12 15 1012.0 1011.5 0.0
18/08:30pm 25.8 22.8 19.9 70 3.8 NW 35 46 19 25 1011.3 1010.8 0.0
18/08:00pm 25.6 21.9 20.8 75 3.2 NW 41 59 22 32 1010.5 1010.0 0.0
18/07:55pm 25.7 22.7 21.4 77 2.9 NW 39 59 21 32 1010.7 1010.2 0.0
18/07:48pm 25.4 24.3 21.1 77 2.8 NNW 28 46 15 25 1011.1 1010.6 0.0
18/07:30pm 25.4 25.1 21.1 77 2.8 NNW 24 33 13 18 1009.8 1009.3 0.0
18/07:00pm 25.4 26.0 21.1 77 2.8 NNW 19 28 10 15 1009.6 1009.1 0.0
18/06:30pm 25.6 26.6 21.1 76 3.0 NNW 17 24 9 13 1008.8 1008.3 0.0
18/06:00pm 25.9 26.4 20.9 74 3.3 NNW 19 26 10 14 1008.8 1008.3 0.0
18/05:30pm 26.4 26.7 20.5 70 3.9 NNW 19 24 10 13 1008.9 1008.4 0.0
18/05:00pm 27.2 27.1 20.0 64 4.7 NNW 20 28 11 15 1008.2 1007.7 0.0
18/04:30pm 27.4 27.5 20.0 64 4.8 NNW 19 24 10 13 1007.7 1007.2 0.0
18/04:00pm 28.2 28.9 20.5 63 5.1 NNW 17 24 9 13 1007.6 1007.1 0.0
18/03:30pm 28.7 30.0 20.2 60 5.6 N 13 17 7 9 1007.2 1006.7 0.0
18/03:00pm 29.4 31.2 20.3 58 6.0 N 11 17 6 9 1007.3 1006.8 0.0
18/02:30pm 30.6 32.6 20.8 56 6.5 N 11 17 6 9 1007.8 1007.3 0.0
18/02:00pm 30.6 32.6 20.8 56 6.6 N 11 17 6 9 1008.4 1007.9 0.0
18/01:30pm 31.2 33.8 21.9 57 6.3 N 11 17 6 9 1009.1 1008.6 0.0
18/01:00pm 30.8 33.4 21.9 59 6.0 N 11 17 6 9 1009.4 1008.9 0.0
18/12:30pm 31.1 34.2 22.1 58 6.1 NNE 9 15 5 8 1009.6 1009.1 0.0
18/12:00pm 31.0 33.8 22.3 60 5.9 N 11 17 6 9 1009.9 1009.4 0.0
18/11:30am 30.7 33.3 22.6 62 5.5 N 13 17 7 9 1010.5 1010.0 0.0
18/11:00am 30.3 33.0 22.2 62 5.5 N 11 15 6 8 1010.9 1010.4 0.0
18/10:30am 29.9 33.5 23.1 67 4.7 N 9 15 5 8 1011.3 1010.8 0.0
18/10:00am 29.2 32.1 22.4 66 4.6 NNW 11 17 6 9 1011.6 1011.1 0.0
18/09:30am 29.5 33.7 23.4 69 4.2 NNW 7 9 4 5 1011.8 1011.3 0.0
18/09:00am 29.0 32.4 22.7 69 4.3 N 9 11 5 6 1012.0 1011.5 1.2
18/08:30am 28.3 31.4 22.1 69 4.2 N 9 13 5 7 1011.9 1011.4 1.2
18/08:00am 27.9 30.9 21.9 70 4.0 N 9 13 5 7 1011.9 1011.4 1.2
18/07:30am 27.2 28.8 21.5 71 3.8 N 15 19 8 10 1012.0 1011.5 1.0
18/07:00am 26.5 29.0 21.7 75 3.2 NE 11 15 6 8 1012.1 1011.6 1.0
18/06:30am 25.0 26.6 20.7 77 2.8 ENE 13 17 7 9 1012.0 1011.5 1.0
18/06:00am 24.6 25.7 20.5 78 2.7 E 15 19 8 10 1011.7 1011.2 1.0
18/05:30am 24.2 25.0 19.9 77 2.8 SE 15 19 8 10 1011.3 1010.8 1.0
18/05:00am 23.4 22.9 18.7 75 3.0 S 19 24 10 13 1010.9 1010.4 1.0
18/04:30am 23.4 22.8 18.9 76 2.9 S 20 28 11 15 1010.3 1009.8 1.0
18/04:00am 23.7 22.6 18.6 73 3.2 SW 22 30 12 16 1009.6 1009.1 1.0
18/03:30am 24.3 21.5 19.1 73 3.3 WNW 32 37 17 20 1008.8 1008.3 1.0
18/03:00am 24.5 21.1 18.9 71 3.6 WNW 35 44 19 24 1007.9 1007.4 1.0
18/02:30am 24.3 20.5 18.2 68 3.9 WNW 35 48 19 26 1007.6 1007.1 1.0
18/02:00am 24.1 19.5 18.1 69 3.8 WNW 39 50 21 27 1007.4 1006.9 1.0
18/01:30am 23.9 19.5 18.5 72 3.4 WNW 39 52 21 28 1007.4 1006.9 1.0
18/01:00am 24.4 19.0 17.1 63 4.5 WNW 41 52 22 28 1007.5 1007.0 1.0
18/12:30am 24.7 21.0 16.9 62 4.8 WNW 32 39 17 21 1007.4 1006.9 1.0
18/12:00am 24.5 21.4 18.4 69 3.9 NW 32 39 17 21 1007.7 1007.2 1.0
 
Date/Time
EST
Temp
°C
App
Temp
°C
Dew
Point
Rel
Hum
%
Delta-T
°C
Wind Press
QNH
hPa
Press
MSL
hPa
Rain
since 9 am
mm
Dir
 
Spd
km/h
Gust
km/h
Spd
kts
Gust
kts
17/11:30pm 24.8 24.4 19.4 72 3.5 NNW 20 35 11 19 1007.9 1007.4 1.0
17/11:00pm 25.4 24.7 18.3 65 4.5 N 19 26 10 14 1008.2 1007.7 1.0
17/10:30pm 24.4 24.1 19.2 73 3.3 N 19 26 10 14 1008.4 1007.9 1.0
17/10:00pm 24.7 21.4 18.4 68 4.0 N 33 63 18 34 1008.0 1007.5 1.0
17/09:51pm 25.1 23.6 18.5 67 4.2 NNW 24 63 13 34 1008.2 1007.7 1.0
17/09:30pm 25.4 24.7 17.3 61 5.1 N 17 24 9 13 1007.7 1007.2 1.0
17/09:08pm 24.0 22.1 19.3 75 3.0 N 28 43 15 23 1006.7 1006.2 1.0
17/09:00pm 24.0 20.7 18.4 71 3.5 NNW 33 46 18 25 1008.8 1008.3 1.0
17/08:30pm 26.2 23.5 16.7 56 5.9 N 26 52 14 28 1009.9 1009.4 0.6
17/08:25pm 26.3 21.8 15.4 51 6.6 NNW 33 52 18 28 1010.1 1009.6 0.6
17/08:22pm 26.2 22.7 17.8 60 5.3 NW 33 50 18 27 1009.8 1009.3 0.6
17/08:19pm 26.6 22.9 17.4 57 5.8 WNW 33 50 18 27 1009.3 1008.8 0.6
17/08:14pm 26.6 23.8 17.4 57 5.8 NW 28 46 15 25 1009.1 1008.6 0.6
17/08:00pm 25.7 24.5 18.4 64 4.7 N 22 37 12 20 1008.8 1008.3 0.6
17/07:30pm 27.2 26.1 19.5 62 5.0 SW 24 39 13 21 1008.6 1008.1 0.4
17/07:21pm 27.3 25.6 20.6 67 4.4 SSW 30 41 16 22 1008.3 1007.8 0.4
17/07:04pm 26.4 26.7 21.6 75 3.2 W 22 41 12 22 1007.8 1007.3 0.4
17/07:00pm 26.7 28.3 22.1 76 3.1 NNW 17 22 9 12 1007.1 1006.6 0.4
17/06:30pm 26.1 28.6 22.4 80 2.5 NNW 13 19 7 10 1006.4 1005.9 0.4
17/06:00pm 26.4 25.1 22.5 79 2.6 NW 33 43 18 23 1005.3 1004.8 0.4
17/05:30pm 26.7 27.8 23.0 80 2.5 NNW 22 35 12 19 1004.4 1003.9 0.4
17/05:00pm 27.3 29.2 22.7 76 3.1 N 17 30 9 16 1005.1 1004.6 0.0
17/04:30pm 28.8 30.4 22.8 70 4.1 N 19 30 10 16 1004.6 1004.1 0.0
17/04:00pm 30.4 32.5 23.1 65 5.0 N 17 30 9 16 1004.6 1004.1 0.0
17/03:30pm 31.1 34.2 23.5 64 5.3 N 13 19 7 10 1004.5 1004.0 0.0
17/03:00pm 31.2 34.3 23.6 64 5.3 N 13 24 7 13 1004.7 1004.2 0.0
17/02:30pm 31.3 33.0 23.1 61 5.7 N 19 24 10 13 1005.1 1004.6 0.0
17/02:00pm 32.0 36.0 23.8 62 5.7 N 9 17 5 9 1005.5 1005.0 0.0
17/01:30pm 32.3 36.8 24.6 64 5.4 N 9 15 5 8 1005.8 1005.3 0.0
17/01:00pm 31.6 35.7 23.9 63 5.4 N 9 15 5 8 1006.2 1005.7 0.0
17/12:30pm 31.4 35.4 23.8 64 5.3 N 9 13 5 7 1006.5 1006.0 0.0
17/12:00pm 31.0 35.1 23.9 66 5.0 N 9 15 5 8 1006.8 1006.3 0.0
17/11:30am 30.6 34.7 23.3 65 5.0 N 7 9 4 5 1007.1 1006.6 0.0
17/11:00am 30.5 35.0 23.9 68 4.6 N 7 11 4 6 1007.4 1006.9 0.0
17/10:30am 29.0 28.2 21.7 64 4.9 NNW 28 33 15 18 1007.6 1007.1 0.0
17/10:00am 27.5 27.1 22.4 73 3.5 NW 28 35 15 19 1007.5 1007.0 0.0
17/09:30am 26.8 26.6 22.0 75 3.2 NW 26 35 14 19 1007.6 1007.1 0.0
17/09:00am 27.2 27.2 23.0 78 2.9 NW 28 33 15 18 1007.8 1007.3 0.0
17/08:30am 26.0 26.3 22.3 80 2.5 NW 24 32 13 17 1007.9 1007.4 0.0
17/08:00am 25.9 26.9 22.8 83 2.1 NW 22 28 12 15 1008.0 1007.5 0.0
17/07:30am 24.8 26.0 22.5 87 1.5 NW 20 26 11 14 1007.5 1007.0 0.0
17/07:00am 24.5 25.5 22.2 87 1.5 NW 20 26 11 14 1007.6 1007.1 0.0
17/06:30am 24.2 25.1 21.9 87 1.5 NW 20 24 11 13 1007.5 1007.0 0.0

Other Formats:

Comma delimited format used in spreadsheet applications
http://www.bom.gov.au/fwo/IDQ60801/IDQ60801.94584.axf

JavaScript Object Notation format (JSON) in row-major order
http://www.bom.gov.au/fwo/IDQ60801/IDQ60801.94584.json